Latest Weather Observations for Nowra

IDN60901

Issued at 6:01 pm EST Monday 25 September 2017 (issued every 10 minutes, with the page automatically refreshed every 10 minutes)

About weather observations | Map of Canberra area stations | Latest observations for Canberra area | Other Formats
Station Details ID: 068072 Name: NOWRA RAN AIR STATION AWS Lat: -34.95 Lon: 150.54 Height: 109.0 m
Data from the previous 72 hours. | See also: Recent months at Nowra
Date/Time
EST
Temp
°C
App
Temp
°C
Dew
Point
°C
Rel
Hum
%
Delta-T
°C
Wind Press
QNH
hPa
Press
MSL
hPa
Rain since
9am
mm
Dir  Spd
km/h
Gust
km/h
Spd
kts
Gust
kts
25/05:30pm 19.4 11.7 -0.1 27 8.6 W 30 52 16 28 1007.8 1007.7 0.0
25/05:00pm 20.1 11.8 0.0 26 9.0 W 33 48 18 26 1007.2 1007.1 0.0
25/04:30pm 20.9 12.8 -0.4 24 9.5 W 32 52 17 28 1006.7 1006.6 0.0
25/04:00pm 21.2 10.9 -0.7 23 9.7 W 43 59 23 32 1006.6 1006.5 0.0
25/03:30pm 21.6 13.3 -0.4 23 9.8 W 33 56 18 30 1006.3 1006.2 0.0
25/03:00pm 21.8 11.7 0.4 24 9.8 W 43 63 23 34 1005.9 1005.8 0.0
25/02:30pm 22.0 12.3 0.5 24 9.8 W 41 56 22 30 1005.8 1005.7 0.0
25/02:00pm 21.5 10.7 -0.5 23 9.8 WNW 46 65 25 35 1005.6 1005.5 0.0
25/01:37pm 22.4 12.6 -0.3 22 10.2 W 41 59 22 32 1005.3 1005.2 0.0
25/01:30pm 22.5 12.1 -0.3 22 10.3 W 44 63 24 34 1005.6 1005.5 0.0
25/01:00pm 21.7 10.8 -0.9 22 10.0 WNW 46 70 25 38 1005.4 1005.3 0.0
25/12:30pm 22.5 11.2 -1.6 20 10.6 W 48 65 26 35 1005.1 1005.0 0.0
25/12:00pm 22.7 11.5 -0.7 21 10.5 W 48 76 26 41 1005.3 1005.2 0.0
25/11:30am 22.3 11.7 -1.7 20 10.5 W 44 67 24 36 1005.5 1005.4 0.0
25/11:00am 21.5 8.8 -0.5 23 9.8 W 56 74 30 40 1005.7 1005.6 0.0
25/10:30am 21.5 10.2 -1.1 22 9.9 WNW 48 72 26 39 1005.8 1005.7 0.0
25/10:00am 22.3 12.4 -1.1 21 10.4 W 41 61 22 33 1005.9 1005.8 0.0
25/09:30am 21.3 11.0 -1.3 22 9.9 W 43 61 23 33 1005.8 1005.7 0.0
25/09:08am 20.9 11.7 -1.0 23 9.6 W 37 56 20 30 1005.7 1005.6 0.0
25/09:00am 20.2 10.1 -2.2 22 9.6 WNW 41 56 22 30 1005.7 1005.6 0.0
25/08:38am 19.8 10.5 -1.9 23 9.3 WNW 37 56 20 30 1005.5 1005.4 0.0
25/08:30am 19.9 10.7 -1.2 24 9.1 WNW 37 54 20 29 1005.5 1005.4 0.0
25/08:02am 19.1 11.1 0.2 28 8.4 WNW 32 50 17 27 1005.4 1005.3 0.0
25/08:00am 19.0 10.7 -0.4 27 8.5 WNW 33 50 18 27 1005.4 1005.3 0.0
25/07:30am 18.0 10.3 -0.3 29 7.9 WNW 30 44 16 24 1005.1 1005.0 0.0
25/07:00am 17.1 9.8 0.3 32 7.3 WNW 28 39 15 21 1005.2 1005.1 0.0
25/06:30am 16.7 8.7 0.4 33 7.1 WNW 32 48 17 26 1005.2 1005.1 0.0
25/06:00am 16.3 9.0 0.0 33 7.0 WNW 28 41 15 22 1005.1 1005.0 0.0
25/05:30am 16.3 9.8 0.0 33 7.0 WNW 24 33 13 18 1004.8 1004.7 0.0
25/05:00am 16.6 10.0 -0.1 32 7.2 W 24 39 13 21 1004.5 1004.4 0.0
25/04:30am 17.1 9.0 -0.6 30 7.6 W 32 44 17 24 1004.0 1003.9 0.0
25/04:00am 17.1 9.7 -0.6 30 7.6 W 28 41 15 22 1003.7 1003.6 0.0
25/03:30am 17.2 9.4 -1.0 29 7.7 WNW 30 46 16 25 1003.5 1003.3 0.0
25/03:27am 17.4 10.0 -0.8 29 7.8 WNW 28 46 15 25 1003.5 1003.3 0.0
25/03:00am 17.3 9.8 -1.4 28 7.9 WNW 28 39 15 21 1003.4 1003.2 0.0
25/02:30am 17.8 10.3 -1.4 27 8.1 WNW 28 41 15 22 1003.4 1003.2 0.0
25/02:00am 18.3 10.3 -2.0 25 8.6 WNW 30 43 16 23 1003.4 1003.2 0.0
25/01:30am 18.5 11.3 -1.9 25 8.6 WNW 26 35 14 19 1003.5 1003.3 0.0
25/01:00am 19.1 12.7 -1.9 24 8.9 WNW 22 32 12 17 1003.3 1003.1 0.0
25/12:30am 19.7 12.5 -2.0 23 9.2 WNW 26 39 14 21 1003.2 1003.0 0.0
25/12:00am 19.8 13.5 -0.8 25 9.0 WNW 22 37 12 20 1003.2 1003.0 0.0
 
Date/Time
EST
Temp
°C
App
Temp
°C
Dew
Point
°C
Rel
Hum
%
Delta-T
°C
Wind Press
QNH
hPa
Press
MSL
hPa
Rain since
9am
mm
Dir  Spd
km/h
Gust
km/h
Spd
kts
Gust
kts
24/11:30pm 19.7 14.1 -0.3 26 8.8 WNW 19 24 10 13 1003.1 1002.9 0.0
24/11:00pm 20.2 14.0 -0.4 25 9.1 WNW 22 32 12 17 1003.0 1002.8 0.0
24/10:30pm 20.5 13.2 -0.2 25 9.2 WNW 28 41 15 22 1003.0 1002.8 0.0
24/10:00pm 20.3 13.3 -0.3 25 9.2 NW 26 39 14 21 1003.0 1002.8 0.0
24/09:36pm 20.6 13.3 -0.1 25 9.2 NW 28 46 15 25 1003.1 1002.9 0.0
24/09:30pm 20.2 13.3 0.1 26 9.0 NW 26 37 14 20 1003.1 1002.9 0.0
24/09:00pm 20.7 13.0 0.0 25 9.3 NW 30 39 16 21 1003.2 1003.0 0.0
24/08:34pm 20.9 13.2 0.2 25 9.3 NW 30 48 16 26 1003.1 1002.9 0.0
24/08:30pm 20.6 12.9 -0.1 25 9.2 NW 30 43 16 23 1003.1 1002.9 0.0
24/08:00pm 20.8 13.5 0.1 25 9.3 NW 28 41 15 22 1003.0 1002.8 0.0
24/07:30pm 20.9 13.2 0.2 25 9.3 NW 30 41 16 22 1002.9 1002.7 0.0
24/07:00pm 21.0 13.7 0.2 25 9.4 NW 28 44 15 24 1002.6 1002.5 0.0
24/06:30pm 21.0 13.3 0.2 25 9.3 NW 30 50 16 27 1002.3 1002.2 0.0
24/06:26pm 21.2 13.1 -0.1 24 9.5 NW 32 50 17 27 1002.3 1002.2 0.0
24/06:00pm 21.2 14.0 0.4 25 9.5 NW 28 43 15 23 1002.1 1002.0 0.0
24/05:30pm 21.8 14.6 0.4 24 9.7 NW 28 37 15 20 1001.6 1001.5 0.0
24/05:00pm 22.8 14.5 -0.6 21 10.6 NW 33 46 18 25 1001.4 1001.3 0.0
24/04:30pm 23.2 14.3 -1.7 19 11.0 NW 35 54 19 29 1001.1 1001.0 0.0
24/04:00pm 23.7 13.9 -2.8 17 11.6 NW 39 59 21 32 1000.9 1000.8 0.0
24/03:30pm 24.3 15.7 -4.0 15 12.1 WNW 32 50 17 27 1000.7 1000.6 0.0
24/03:00pm 24.1 14.1 -5.0 14 12.2 NW 39 65 21 35 1001.0 1000.9 0.0
24/02:30pm 24.3 15.5 -5.8 13 12.4 NW 32 50 17 27 1001.1 1001.0 0.0
24/02:00pm 23.8 13.7 -6.2 13 12.3 NW 39 59 21 32 1001.4 1001.3 0.0
24/01:59pm 23.7 13.7 -5.3 14 12.0 NW 39 59 21 32 1001.4 1001.3 0.0
24/01:30pm 23.4 13.5 -3.8 16 11.5 NW 39 56 21 30 1001.7 1001.6 0.0
24/01:00pm 23.3 13.7 -4.8 15 11.8 NW 37 61 20 33 1001.7 1001.6 0.0
24/12:54pm 23.1 14.2 -4.9 15 11.6 NW 33 61 18 33 1002.0 1001.9 0.0
24/12:30pm 22.7 14.4 -5.2 15 11.5 NW 30 44 16 24 1001.8 1001.7 0.0
24/12:00pm 23.4 15.7 -6.5 13 12.1 NW 26 44 14 24 1002.6 1002.5 0.0
24/11:33am 22.5 12.8 -9.4 11 12.0 WNW 35 54 19 29 1002.6 1002.5 0.0
24/11:30am 22.5 12.8 -9.4 11 12.0 WNW 35 50 19 27 1003.4 1003.2 0.0
24/11:00am 23.1 12.9 -6.8 13 12.0 WNW 39 52 21 28 1003.0 1002.8 0.0
24/10:30am 23.5 13.3 -6.5 13 12.1 WNW 39 61 21 33 1002.9 1002.7 0.0
24/10:00am 23.2 13.0 -6.7 13 12.0 WNW 39 57 21 31 1003.5 1003.3 0.0
24/09:30am 23.0 13.9 -3.3 17 11.2 WNW 35 54 19 29 1003.4 1003.2 0.0
24/09:00am 22.7 12.6 -2.8 18 11.0 WNW 41 61 22 33 1003.2 1003.0 0.0
24/08:30am 22.4 14.1 -0.3 22 10.2 WNW 33 56 18 30 1002.7 1002.6 0.0
24/08:08am 22.2 14.8 -0.5 22 10.2 WNW 28 46 15 25 1002.7 1002.6 0.0
24/08:00am 21.8 14.8 -0.2 23 9.9 WNW 26 43 14 23 1002.5 1002.4 0.0
24/07:54am 21.9 16.1 -0.1 23 9.9 WNW 20 43 11 23 1002.4 1002.3 0.0
24/07:30am 21.2 16.4 0.4 25 9.4 NW 15 24 8 13 1002.5 1002.4 0.0
24/07:00am 16.4 15.2 11.6 73 2.6 ESE 9 11 5 6 1002.1 1002.0 0.0
24/06:30am 16.4 14.2 10.9 70 3.0 SE 13 17 7 9 1001.9 1001.8 0.0
24/06:18am 16.6 14.2 10.0 65 3.5 SE 13 22 7 12 1002.0 1001.9 0.0
24/06:00am 21.7 17.3 -2.2 20 10.4 W 11 20 6 11 1001.9 1001.8 0.0
24/05:30am 22.7 16.9 -1.4 20 10.6 W 19 28 10 15 1001.4 1001.3 0.0
24/05:00am 23.6 16.3 0.0 21 10.9 W 28 41 15 22 1000.3 1000.2 0.0
24/04:30am 24.2 15.9 2.4 24 10.5 W 35 59 19 32 998.7 998.6 0.0
24/04:07am 25.8 16.8 2.5 22 11.3 W 39 61 21 33 997.6 997.5 0.0
24/04:00am 26.5 17.3 1.0 19 12.2 WNW 39 56 21 30 997.2 997.1 0.0
24/03:35am 27.6 19.0 0.4 17 12.9 WNW 35 54 19 29 996.3 996.2 0.0
24/03:30am 27.6 19.4 0.4 17 12.9 WNW 33 46 18 25 996.0 995.9 0.0
24/03:00am 27.7 21.2 0.5 17 13.0 NW 24 33 13 18 996.0 995.9 0.0
24/02:30am 27.9 20.9 -0.2 16 13.2 NW 26 39 14 21 996.0 995.9 0.0
24/02:00am 28.9 20.7 -1.2 14 14.1 WNW 32 39 17 21 996.3 996.2 0.0
24/01:30am 29.6 21.1 -1.7 13 14.5 WNW 33 48 18 26 996.2 996.1 0.0
24/01:00am 30.5 21.1 -3.3 11 15.5 W 37 69 20 37 996.2 996.1 0.0
24/12:46am 30.9 22.2 -3.0 11 15.5 WNW 33 56 18 30 996.4 996.3 0.0
24/12:30am 30.9 23.6 -3.0 11 15.5 NW 26 43 14 23 995.7 995.6 0.0
24/12:00am 30.5 23.9 -3.3 11 15.5 NW 22 33 12 18 995.7 995.6 0.0
 
Date/Time
EST
Temp
°C
App
Temp
°C
Dew
Point
°C
Rel
Hum
%
Delta-T
°C
Wind Press
QNH
hPa
Press
MSL
hPa
Rain since
9am
mm
Dir  Spd
km/h
Gust
km/h
Spd
kts
Gust
kts
23/11:30pm 30.8 23.6 -1.9 12 15.3 WNW 26 35 14 19 995.8 995.7 0.0
23/11:01pm 31.5 22.9 -2.5 11 15.8 NW 33 54 18 29 996.5 996.4 0.0
23/11:00pm 31.3 22.7 -2.6 11 15.8 NW 33 48 18 26 996.5 996.4 0.0
23/10:47pm 30.5 22.4 -3.3 11 15.4 NW 30 48 16 26 997.0 996.9 0.0
23/10:30pm 31.0 22.4 -2.9 11 15.6 NW 33 46 18 25 997.3 997.2 0.0
23/10:15pm 31.0 22.8 -4.1 10 15.8 NW 30 56 16 30 997.5 997.4 0.0
23/10:00pm 30.8 22.9 -4.3 10 15.8 NNW 28 44 15 24 997.6 997.5 0.0
23/09:30pm 30.3 22.9 -3.4 11 15.3 NW 26 44 14 24 998.2 998.1 0.0
23/09:00pm 27.3 21.7 -2.5 14 13.5 NNW 17 22 9 12 998.7 998.6 0.0
23/08:30pm 24.6 20.6 0.2 20 11.3 NW 11 15 6 8 998.6 998.5 0.0
23/08:00pm 28.4 22.8 -2.6 13 14.1 N 17 20 9 11 998.3 998.2 0.0
23/07:30pm 29.5 24.2 -4.0 11 14.9 NNW 15 20 8 11 998.4 998.3 0.0
23/07:00pm 30.7 24.5 -4.4 10 15.8 NW 19 28 10 15 999.1 999.0 0.0
23/06:30pm 31.1 24.6 -5.5 9 16.1 NW 20 33 11 18 998.6 998.5 0.0
23/06:00pm 31.5 26.0 -5.2 9 16.4 NNW 15 20 8 11 998.1 998.0 0.0
23/05:30pm 32.7 26.4 -5.8 8 17.1 NNW 19 28 10 15 998.1 998.0 0.0
23/05:00pm 34.1 27.3 -4.8 8 17.8 NNW 22 35 12 19 998.0 997.9 0.0
23/04:39pm 34.5 26.6 -4.5 8 17.9 NW 28 46 15 25 998.1 998.0 0.0
23/04:30pm 34.8 27.2 -6.0 7 18.3 NW 26 39 14 21 998.1 998.0 0.0
23/04:00pm 35.0 26.6 -5.9 7 18.5 NNW 30 44 16 24 998.2 998.1 0.0
23/03:30pm 35.3 26.9 -5.7 7 18.6 NNW 30 44 16 24 998.4 998.3 0.0
23/03:00pm 35.7 27.4 -5.4 7 18.9 NW 30 48 16 26 998.7 998.6 0.0
23/02:48pm 35.9 27.2 -5.2 7 18.9 NW 32 56 17 30 998.7 998.6 0.0
23/02:43pm 35.7 27.2 -7.4 6 19.1 NW 30 46 16 25 998.7 998.6 0.0
23/02:30pm 35.9 28.7 -5.2 7 18.9 NNW 24 43 13 23 998.8 998.7 0.0
23/02:00pm 33.3 28.6 3.2 15 15.6 ENE 17 24 9 13 999.5 999.4 0.0
23/01:30pm 30.4 24.7 2.6 17 14.0 ENE 22 28 12 15 1000.4 1000.3 0.0
23/01:00pm 31.1 25.5 3.2 17 14.3 ENE 22 30 12 16 1000.9 1000.8 0.0
23/12:30pm 33.3 26.9 -7.1 7 17.6 NW 19 28 10 15 1001.7 1001.6 0.0
23/12:00pm 34.4 27.7 -4.6 8 17.9 NNW 22 37 12 20 1002.7 1002.6 0.0
23/11:30am 33.1 29.5 -4.0 9 17.0 ENE 6 13 3 7 1003.9 1003.8 0.0
23/11:00am 30.7 26.4 -4.4 10 15.7 NNW 9 17 5 9 1004.6 1004.5 0.0
23/10:30am 31.4 25.8 -2.6 11 15.8 NW 17 24 9 13 1005.3 1005.2 0.0
23/10:00am 28.6 23.8 -2.5 13 14.2 NW 13 17 7 9 1005.7 1005.6 0.0
23/09:30am 27.7 21.6 -4.3 12 14.0 WNW 19 32 10 17 1006.2 1006.1 0.0
23/09:00am 26.7 20.4 -6.2 11 13.8 WNW 19 28 10 15 1006.4 1006.3 0.0
23/08:30am 26.2 20.9 -3.4 14 13.0 NW 15 22 8 12 1006.7 1006.6 0.0
23/08:00am 24.2 19.0 -2.4 17 11.7 WNW 15 19 8 10 1006.6 1006.5 0.0
23/07:30am 23.1 18.3 -2.5 18 11.1 WNW 13 17 7 9 1007.0 1006.9 0.0
23/07:00am 19.9 15.2 -1.8 23 9.3 NW 13 17 7 9 1006.9 1006.8 0.0
23/06:30am 20.6 15.0 -3.1 20 9.9 WNW 17 19 9 10 1007.1 1007.0 0.0
23/06:00am 18.9 13.3 -2.7 23 9.0 WNW 17 20 9 11 1007.1 1007.0 0.0
23/05:30am 17.6 11.7 -2.1 26 8.2 NW 19 20 10 11 1007.3 1007.2 0.0
23/05:00am 16.2 10.9 -0.9 31 7.2 NW 17 20 9 11 1007.1 1007.0 0.0
23/04:30am 16.0 11.4 -1.1 31 7.2 NW 13 15 7 8 1007.3 1007.2 0.0
23/04:00am 16.7 11.7 -0.9 30 7.5 NW 15 17 8 9 1007.5 1007.4 0.0
23/03:30am 16.5 11.9 -1.1 30 7.4 NW 13 17 7 9 1007.5 1007.4 0.0
23/03:00am 16.7 11.4 -0.9 30 7.5 NW 17 19 9 10 1007.9 1007.8 0.0
23/02:30am 17.3 11.6 -0.9 29 7.7 WNW 19 20 10 11 1008.2 1008.1 0.0
23/02:00am 16.1 10.9 -0.2 33 7.0 NW 17 19 9 10 1008.6 1008.5 0.0
23/01:30am 16.3 11.1 0.0 33 7.0 WNW 17 19 9 10 1009.0 1008.9 0.0
23/01:00am 16.6 11.8 -0.1 32 7.2 NW 15 19 8 10 1009.4 1009.3 0.0
23/12:30am 17.5 12.3 -0.2 30 7.7 NW 17 19 9 10 1009.7 1009.6 0.0
23/12:00am 18.2 13.0 -0.1 29 8.0 NW 17 19 9 10 1009.9 1009.8 0.0
 
Date/Time
EST
Temp
°C
App
Temp
°C
Dew
Point
°C
Rel
Hum
%
Delta-T
°C
Wind Press
QNH
hPa
Press
MSL
hPa
Rain since
9am
mm
Dir  Spd
km/h
Gust
km/h
Spd
kts
Gust
kts
22/11:30pm 18.4 13.2 0.1 29 8.0 NW 17 19 9 10 1010.0 1009.9 0.0
22/11:00pm 16.8 12.5 1.3 35 6.9 NW 13 15 7 8 1010.2 1010.1 0.0
22/10:30pm 17.9 12.8 1.0 32 7.5 WNW 17 20 9 11 1010.3 1010.2 0.0
22/10:00pm 16.8 12.2 1.7 36 6.8 NW 15 17 8 9 1010.4 1010.3 0.0
22/09:30pm 13.9 11.2 3.9 51 4.6 NW 7 13 4 7 1010.4 1010.3 0.0
22/09:00pm 13.7 12.7 5.6 58 3.8 CALM 0 0 0 0 1010.7 1010.6 0.0
22/08:30pm 14.4 13.4 5.5 55 4.2 CALM 0 0 0 0 1010.7 1010.6 0.0
22/08:00pm 14.2 12.0 5.3 55 4.2 W 6 7 3 4 1010.7 1010.6 0.0
22/07:30pm 14.7 12.4 5.5 54 4.4 W 7 9 4 5 1010.6 1010.5 0.0
22/07:00pm 15.8 13.5 5.7 51 4.9 WSW 7 9 4 5 1010.4 1010.3 0.0
22/06:30pm 15.7 13.3 5.3 50 5.0 SW 7 9 4 5 1010.0 1009.9 0.0

Latest Capital City Observations: Canberra | Sydney | Melbourne | Brisbane | Adelaide | Perth | Hobart | Darwin

Other Formats:

Comma delimited format used in spreadsheet applications
http://www.bom.gov.au/fwo/IDN60903/IDN60903.94750.axf

JavaScript Object Notation format (JSON) in row-major order
http://www.bom.gov.au/fwo/IDN60903/IDN60903.94750.json